createdAt,value
2019-03-01T00:00:39.300Z,47.30
2019-03-01T00:03:11.385Z,51.48
2019-03-01T00:06:25.430Z,51.73
2019-03-01T00:09:29.561Z,52.58
2019-03-01T00:12:33.351Z,49.30
2019-03-01T00:15:36.382Z,51.15
2019-03-01T00:18:21.089Z,52.33
2019-03-01T00:24:49.215Z,57.43
2019-03-01T00:27:54.315Z,61.10
2019-03-01T00:31:00.631Z,61.35
2019-03-01T00:33:42.203Z,64.87
2019-03-01T00:37:00.373Z,63.35
2019-03-01T00:40:04.994Z,71.77
2019-03-01T00:43:11.064Z,65.55
2019-03-01T00:45:44.277Z,68.55
2019-03-01T00:48:14.162Z,70.42
2019-03-01T00:53:24.530Z,74.32
2019-03-01T00:55:54.360Z,71.60
2019-03-01T01:04:19.445Z,71.62
2019-03-01T01:06:50.743Z,78.80
2019-03-01T01:09:20.540Z,77.97
2019-03-01T01:11:51.328Z,75.65
2019-03-01T01:14:21.912Z,78.40
2019-03-01T01:16:51.384Z,82.80
2019-03-01T01:19:21.132Z,82.82
2019-03-01T01:21:52.780Z,85.32
2019-03-01T01:24:22.519Z,83.37
2019-03-01T01:26:54.126Z,87.05
2019-03-01T01:29:26.357Z,85.22
2019-03-01T01:31:55.842Z,87.25
2019-03-01T01:34:27.646Z,84.50
2019-03-01T01:37:01.243Z,86.72
2019-03-01T01:39:31.052Z,88.90
2019-03-01T01:42:00.687Z,84.65
2019-03-01T01:44:30.223Z,93.58
2019-03-01T01:55:14.849Z,93.45
2019-03-01T01:57:46.333Z,99.75
2019-03-01T02:00:16.298Z,96.15
2019-03-01T02:02:50.396Z,96.12
2019-03-01T02:05:22.667Z,102.82
2019-03-01T02:08:50.906Z,102.12
2019-03-01T02:11:20.603Z,100.40
2019-03-01T02:13:51.941Z,106.43
2019-03-01T02:16:24.486Z,103.87
2019-03-01T02:18:57.788Z,105.65
2019-03-01T02:21:25.233Z,105.05
2019-03-01T02:23:54.687Z,101.27
2019-03-01T02:26:24.459Z,103.32
2019-03-01T02:28:53.912Z,105.65
2019-03-01T02:31:25.026Z,107.43
2019-03-01T02:33:54.344Z,102.10
2019-03-01T02:36:24.762Z,108.32
2019-03-01T02:38:54.159Z,106.22
2019-03-01T02:41:23.478Z,108.00
2019-03-01T02:43:52.863Z,107.45
2019-03-01T02:46:27.700Z,100.80
2019-03-01T02:48:57.077Z,108.00
2019-03-01T02:51:26.477Z,103.30
2019-03-01T02:53:56.379Z,104.47
2019-03-01T02:56:29.922Z,109.17
2019-03-01T02:59:52.988Z,105.70
2019-03-01T03:02:47.062Z,106.40
2019-03-01T03:05:28.789Z,107.85
2019-03-01T03:08:05.440Z,109.40
2019-03-01T03:10:36.120Z,106.67
2019-03-01T03:13:09.804Z,102.85
2019-03-01T03:15:44.745Z,105.22
2019-03-01T03:18:14.280Z,105.17
2019-03-01T03:26:10.535Z,102.85
2019-03-01T03:28:40.065Z,104.47
2019-03-01T03:31:09.937Z,102.90
2019-03-01T03:33:39.501Z,104.85
2019-03-01T03:36:08.960Z,101.87
2019-03-01T03:38:39.016Z,99.35
2019-03-01T03:41:08.628Z,106.32
2019-03-01T03:43:38.044Z,99.28
2019-03-01T03:46:07.652Z,98.78
2019-03-01T03:48:43.468Z,102.75
2019-03-01T03:51:17.983Z,103.40
2019-03-01T03:53:47.530Z,100.30
2019-03-01T03:56:18.443Z,102.15
2019-03-01T03:58:48.019Z,105.35
2019-03-01T04:01:17.590Z,109.83
2019-03-01T04:03:48.763Z,105.45
2019-03-01T04:06:18.477Z,105.15
2019-03-01T04:08:50.198Z,105.07
2019-03-01T04:11:21.576Z,104.27
2019-03-01T04:13:50.899Z,107.52
2019-03-01T04:16:20.798Z,102.97
2019-03-01T04:18:53.583Z,103.55
2019-03-01T04:21:29.095Z,104.40
2019-03-01T04:23:58.858Z,106.20
2019-03-01T04:26:28.690Z,106.12
2019-03-01T04:28:58.858Z,105.03
2019-03-01T04:31:30.996Z,104.38
2019-03-01T04:34:01.558Z,103.75
2019-03-01T04:36:31.223Z,105.95
2019-03-01T04:39:00.881Z,100.60
2019-03-01T04:41:43.654Z,102.78
2019-03-01T04:44:15.385Z,98.75
2019-03-01T04:46:45.093Z,103.97
2019-03-01T04:49:14.449Z,102.82
2019-03-01T04:51:43.921Z,109.83
2019-03-01T04:54:13.397Z,102.38
2019-03-01T04:57:10.147Z,104.17
2019-03-01T04:59:39.677Z,103.35
2019-03-01T05:02:09.263Z,104.17
2019-03-01T05:04:39.049Z,107.70
2019-03-01T05:07:14.294Z,103.60
2019-03-01T05:09:42.312Z,105.47
2019-03-01T05:12:12.154Z,103.35
2019-03-01T05:14:42.666Z,105.00
2019-03-01T05:17:12.209Z,100.95
2019-03-01T05:19:44.034Z,103.85
2019-03-01T05:22:13.429Z,101.30
2019-03-01T05:24:42.879Z,107.12
2019-03-01T05:27:12.201Z,103.12
2019-03-01T05:29:45.752Z,102.75
2019-03-01T05:32:15.262Z,99.30
2019-03-01T05:34:44.866Z,103.83
2019-03-01T05:37:15.406Z,104.70
2019-03-01T05:39:49.239Z,102.72
2019-03-01T05:42:19.482Z,100.25
2019-03-01T05:44:48.731Z,99.85
2019-03-01T05:47:18.195Z,102.47
2019-03-01T05:49:48.368Z,102.02
2019-03-01T05:52:18.370Z,97.10
2019-03-01T05:54:47.752Z,101.40
2019-03-01T05:57:19.053Z,96.85
2019-03-01T05:59:49.021Z,101.72
2019-03-01T06:02:57.607Z,99.67
2019-03-01T06:05:35.448Z,94.70
2019-03-01T06:08:38.446Z,95.28
2019-03-01T06:11:36.072Z,91.45
2019-03-01T06:14:42.972Z,44.88
2019-03-01T06:17:40.523Z,68.83
2019-03-01T06:20:29.736Z,71.10
2019-03-01T06:23:17.421Z,66.10
2019-03-01T06:26:39.884Z,63.63
2019-03-01T06:29:40.507Z,63.85
2019-03-01T06:32:46.396Z,57.17
2019-03-01T06:35:56.331Z,62.35
2019-03-01T06:39:15.061Z,59.35
2019-03-01T06:42:20.702Z,56.60
2019-03-01T06:45:15.024Z,64.67
2019-03-01T06:47:49.847Z,66.35
2019-03-01T06:50:53.312Z,69.80
2019-03-01T06:53:22.563Z,68.25
2019-03-01T06:56:00.369Z,67.85
2019-03-01T06:58:37.623Z,69.03
2019-03-01T07:01:10.833Z,68.65
2019-03-01T07:03:40.086Z,68.87
2019-03-01T07:06:09.259Z,58.15
2019-03-01T07:08:39.652Z,50.45
2019-03-01T07:11:11.388Z,43.52
2019-03-01T07:13:40.761Z,38.10
2019-03-01T07:16:09.996Z,33.63
2019-03-01T07:18:41.601Z,35.05
2019-03-01T07:21:10.790Z,32.33
2019-03-01T07:23:42.113Z,23.02
2019-03-01T07:26:11.357Z,20.05
2019-03-01T07:28:40.521Z,15.58
2019-03-01T07:31:10.292Z,14.63
2019-03-01T07:33:39.491Z,15.70
2019-03-01T07:36:08.724Z,15.15
2019-03-01T07:38:37.928Z,15.48
2019-03-01T07:41:07.205Z,13.28
2019-03-01T07:43:37.632Z,12.13
2019-03-01T07:46:06.962Z,13.20
2019-03-01T07:48:36.202Z,14.70
2019-03-01T07:51:05.428Z,13.78
2019-03-01T07:53:36.050Z,14.90
2019-03-01T07:56:05.539Z,15.38
2019-03-01T07:58:34.732Z,16.67
2019-03-01T08:01:04.107Z,13.83
2019-03-01T08:03:33.356Z,15.58
2019-03-01T08:06:02.563Z,15.60
2019-03-01T08:08:34.917Z,15.78
2019-03-01T08:11:02.723Z,15.95
2019-03-01T08:13:31.823Z,14.80
2019-03-01T08:16:01.026Z,15.88
2019-03-01T08:18:30.154Z,15.28
2019-03-01T08:20:59.436Z,14.68
2019-03-01T08:23:31.805Z,13.45
2019-03-01T08:25:59.902Z,12.85
2019-03-01T08:28:29.201Z,12.35
2019-03-01T08:30:59.979Z,12.73
2019-03-01T08:33:29.166Z,11.53
2019-03-01T08:35:58.429Z,12.30
2019-03-01T08:38:28.898Z,12.80
2019-03-01T08:40:58.494Z,12.65
2019-03-01T08:43:27.700Z,13.15
2019-03-01T08:45:56.865Z,13.25
2019-03-01T08:48:26.073Z,13.20
2019-03-01T08:50:56.747Z,13.53
2019-03-01T08:53:25.905Z,13.70
2019-03-01T08:55:55.112Z,14.45
2019-03-01T08:58:24.341Z,14.50
2019-03-01T09:00:59.571Z,12.75
2019-03-01T09:03:31.073Z,14.30
2019-03-01T09:06:00.369Z,14.50
2019-03-01T09:08:29.601Z,13.58
2019-03-01T09:10:59.702Z,14.10
2019-03-01T09:13:29.024Z,14.25
2019-03-01T09:15:58.151Z,14.75
2019-03-01T09:18:27.273Z,15.43
2019-03-01T09:21:04.604Z,15.08
2019-03-01T09:23:27.486Z,14.90
2019-03-01T09:25:56.795Z,14.65
2019-03-01T09:28:26.096Z,15.98
2019-03-01T09:30:55.247Z,16.95
2019-03-01T09:33:24.444Z,16.42
2019-03-01T09:36:18.001Z,16.57
2019-03-01T09:38:48.423Z,19.40
2019-03-01T09:41:17.579Z,17.98
2019-03-01T09:43:46.899Z,19.02
2019-03-01T09:46:16.136Z,17.12
2019-03-01T09:48:45.537Z,17.30
2019-03-01T09:51:16.209Z,16.95
2019-03-01T09:53:45.834Z,16.80
2019-03-01T09:56:15.077Z,16.32
2019-03-01T09:58:44.355Z,16.37
2019-03-01T10:01:15.643Z,14.65
2019-03-01T10:03:45.149Z,14.40
2019-03-01T10:06:14.701Z,14.90
2019-03-01T10:08:43.920Z,14.13
2019-03-01T10:11:17.413Z,14.85
2019-03-01T10:13:46.640Z,12.78
2019-03-01T10:16:15.908Z,13.10
2019-03-01T10:18:48.750Z,12.93
2019-03-01T10:21:19.417Z,13.88
2019-03-01T10:23:56.068Z,13.75
2019-03-01T10:26:28.344Z,14.33
2019-03-01T10:28:57.621Z,13.53
2019-03-01T10:31:30.631Z,13.98
2019-03-01T10:33:59.828Z,14.60
2019-03-01T10:36:35.890Z,15.50
2019-03-01T10:39:10.516Z,17.23
2019-03-01T10:41:39.711Z,17.65
2019-03-01T10:44:09.155Z,18.77
2019-03-01T10:46:38.355Z,19.20
2019-03-01T10:49:07.533Z,18.57
2019-03-01T10:51:36.780Z,20.45
2019-03-01T10:54:06.566Z,20.97
2019-03-01T10:56:35.838Z,22.48
2019-03-01T10:59:06.900Z,20.25
2019-03-01T11:01:36.189Z,20.95
2019-03-01T11:04:05.519Z,22.32
2019-03-01T11:06:36.426Z,22.17
2019-03-01T11:09:07.633Z,19.80
2019-03-01T11:11:36.976Z,20.43
2019-03-01T11:14:06.161Z,19.12
2019-03-01T11:16:38.422Z,20.82
2019-03-01T11:19:07.639Z,21.82
2019-03-01T11:21:37.184Z,22.52
2019-03-01T11:24:07.171Z,19.52
2019-03-01T11:29:42.235Z,19.98
2019-03-01T11:32:11.449Z,18.48
2019-03-01T11:34:40.621Z,19.45
2019-03-01T11:37:19.374Z,18.32
2019-03-01T11:39:48.655Z,18.02
2019-03-01T11:42:19.517Z,18.82
2019-03-01T11:49:21.799Z,17.92
2019-03-01T11:51:51.124Z,18.52
2019-03-01T11:55:01.176Z,19.25
2019-03-01T11:58:17.549Z,17.70
2019-03-01T12:00:52.120Z,18.87
2019-03-01T12:03:47.537Z,19.35
2019-03-01T12:10:39.873Z,20.75
2019-03-01T12:13:09.063Z,21.68
2019-03-01T12:16:03.189Z,20.43
2019-03-01T12:19:52.354Z,22.10
2019-03-01T12:23:06.934Z,22.07
2019-03-01T12:26:00.366Z,21.65
2019-03-01T12:28:31.022Z,20.43
2019-03-01T12:34:18.816Z,20.30
2019-03-01T12:37:03.003Z,21.02
2019-03-01T12:39:32.219Z,22.42
2019-03-01T12:42:03.706Z,19.87
2019-03-01T12:44:53.067Z,21.45
2019-03-01T12:51:27.771Z,24.70
2019-03-01T12:54:00.040Z,25.50
2019-03-01T12:56:31.311Z,24.37
2019-03-01T12:59:03.272Z,28.62
2019-03-01T13:05:08.515Z,26.87
2019-03-01T13:07:37.737Z,26.85
2019-03-01T13:10:26.545Z,27.80
2019-03-01T13:13:26.211Z,27.70
2019-03-01T13:15:55.203Z,28.62
2019-03-01T13:18:24.497Z,26.62
2019-03-01T13:20:53.854Z,26.20
2019-03-01T13:23:23.094Z,31.17
2019-03-01T13:25:52.299Z,29.50
2019-03-01T13:28:21.429Z,24.47
2019-03-01T13:30:51.395Z,27.42
2019-03-01T13:33:21.628Z,26.57
2019-03-01T13:35:50.802Z,26.10
2019-03-01T13:38:20.000Z,15.85
2019-03-01T13:40:50.644Z,15.35
2019-03-01T13:47:44.010Z,15.08
2019-03-01T13:50:14.463Z,13.55
2019-03-01T13:52:49.007Z,13.08
2019-03-01T13:55:22.034Z,12.80
2019-03-01T13:57:51.139Z,13.72
2019-03-01T14:00:20.886Z,13.50
2019-03-01T14:02:50.585Z,14.55
2019-03-01T14:05:19.804Z,14.03
2019-03-01T14:07:55.529Z,14.87
2019-03-01T14:10:20.406Z,14.55
2019-03-01T14:12:49.711Z,17.05
2019-03-01T14:25:30.198Z,18.92
2019-03-01T14:28:02.108Z,18.02
2019-03-01T14:30:33.250Z,17.32
2019-03-01T14:33:01.494Z,19.17
2019-03-01T14:35:30.729Z,19.52
2019-03-01T14:37:59.955Z,19.42
2019-03-01T14:40:29.112Z,19.00
2019-03-01T14:42:58.307Z,18.62
2019-03-01T14:45:27.643Z,18.70
2019-03-01T14:47:57.026Z,16.40
2019-03-01T14:50:29.557Z,16.62
2019-03-01T14:52:58.949Z,16.85
2019-03-01T14:55:42.547Z,17.70
2019-03-01T14:58:24.719Z,16.40
2019-03-01T15:00:59.120Z,17.20
2019-03-01T15:03:34.657Z,16.35
2019-03-01T15:06:04.626Z,16.90
2019-03-01T15:08:33.924Z,14.85
2019-03-01T15:11:09.192Z,14.73
2019-03-01T15:13:38.621Z,15.10
2019-03-01T15:16:08.132Z,14.38
2019-03-01T15:18:39.113Z,14.50
2019-03-01T15:21:08.996Z,13.80
2019-03-01T15:23:38.155Z,14.75
2019-03-01T15:26:08.302Z,15.30
2019-03-01T15:28:58.576Z,14.40
2019-03-01T15:31:27.642Z,15.70
2019-03-01T15:33:56.867Z,15.88
2019-03-01T15:36:26.132Z,18.15
2019-03-01T15:38:55.363Z,18.52
2019-03-01T15:41:24.622Z,19.25
2019-03-01T15:43:53.862Z,23.77
2019-03-01T15:46:23.197Z,27.75
2019-03-01T15:48:52.508Z,28.77
2019-03-01T15:51:21.778Z,32.17
2019-03-01T15:53:51.019Z,35.00
2019-03-01T15:56:22.044Z,38.15
2019-03-01T15:58:51.030Z,39.38
2019-03-01T16:01:20.256Z,37.30
2019-03-01T16:03:49.624Z,41.13
2019-03-01T16:06:22.247Z,38.95
2019-03-01T16:08:49.707Z,40.03
2019-03-01T16:11:18.906Z,44.08
2019-03-01T16:13:49.245Z,43.75
2019-03-01T16:16:18.672Z,44.00
2019-03-01T16:18:47.799Z,46.42
2019-03-01T16:21:16.930Z,45.95
2019-03-01T16:23:46.231Z,45.15
2019-03-01T16:26:15.443Z,44.60
2019-03-01T16:28:44.675Z,50.28
2019-03-01T16:31:13.775Z,51.13
2019-03-01T16:33:43.097Z,51.85
2019-03-01T16:36:23.341Z,49.30
2019-03-01T16:38:51.451Z,47.30
2019-03-01T16:41:20.693Z,49.63
2019-03-01T16:43:49.862Z,51.73
2019-03-01T16:46:19.120Z,48.58
2019-03-01T16:48:51.834Z,51.45
2019-03-01T16:51:19.710Z,50.20
2019-03-01T16:53:55.971Z,48.98
2019-03-01T16:56:26.542Z,47.45
2019-03-01T16:58:55.877Z,50.85
2019-03-01T17:01:26.036Z,41.98
2019-03-01T17:03:56.228Z,46.90
2019-03-01T17:06:25.363Z,43.08
2019-03-01T17:08:54.524Z,46.73
2019-03-01T17:11:23.657Z,47.10
2019-03-01T17:13:52.963Z,46.35
2019-03-01T17:16:23.765Z,52.05
2019-03-01T17:18:54.892Z,50.58
2019-03-01T17:21:26.342Z,46.28
2019-03-01T17:23:57.770Z,49.38
2019-03-01T17:26:29.881Z,48.68
2019-03-01T17:29:02.712Z,42.67
2019-03-01T17:31:31.443Z,49.35
2019-03-01T17:34:04.428Z,49.85
2019-03-01T17:36:33.607Z,49.58
2019-03-01T17:39:04.397Z,43.92
2019-03-01T17:41:45.599Z,39.15
2019-03-01T17:44:18.251Z,28.55
2019-03-01T17:46:51.158Z,27.35
2019-03-01T17:49:34.468Z,24.40
2019-03-01T18:16:43.831Z,23.57
2019-03-01T18:19:13.344Z,22.82
2019-03-01T18:21:46.341Z,23.05
2019-03-01T18:24:20.665Z,22.80
2019-03-01T18:26:49.863Z,23.65
2019-03-01T18:29:20.576Z,26.12
2019-03-01T18:32:10.881Z,24.32
2019-03-01T18:35:55.777Z,26.77
2019-03-01T18:38:27.694Z,25.32
2019-03-01T18:41:01.429Z,24.57
2019-03-01T18:43:30.697Z,26.52
2019-03-01T18:46:01.011Z,27.10
2019-03-01T18:48:30.284Z,23.35
2019-03-01T18:51:03.490Z,23.80
2019-03-01T18:56:57.020Z,22.27
2019-03-01T18:59:26.121Z,23.98
2019-03-01T19:01:55.337Z,24.82
2019-03-01T19:04:29.509Z,24.40
2019-03-01T19:06:57.716Z,24.60
2019-03-01T19:09:27.313Z,23.62
2019-03-01T19:11:59.203Z,24.12
2019-03-01T19:14:28.374Z,25.52
2019-03-01T19:16:57.537Z,24.35
2019-03-01T19:19:29.773Z,26.07
2019-03-01T19:21:59.468Z,25.15
2019-03-01T19:24:28.907Z,25.23
2019-03-01T19:26:58.173Z,24.32
2019-03-01T19:29:27.385Z,24.05
2019-03-01T19:31:56.647Z,25.80
2019-03-01T19:34:34.213Z,26.05
2019-03-01T19:37:34.312Z,24.67
2019-03-01T19:40:03.712Z,23.80
2019-03-01T19:42:34.157Z,23.10
2019-03-01T19:45:04.682Z,21.80
2019-03-01T19:47:34.400Z,23.25
2019-03-01T19:52:53.405Z,24.63
2019-03-01T19:55:24.120Z,25.17
2019-03-01T19:57:53.383Z,27.30
2019-03-01T20:00:23.408Z,22.25
2019-03-01T20:02:52.688Z,23.55
2019-03-01T20:05:23.662Z,23.60
2019-03-01T20:07:54.664Z,21.75
2019-03-01T20:10:25.036Z,22.80
2019-03-01T20:12:54.626Z,24.23
2019-03-01T20:15:24.120Z,21.33
2019-03-01T20:17:53.390Z,21.60
2019-03-01T20:20:22.771Z,20.90
2019-03-01T20:22:54.269Z,22.17
2019-03-01T20:25:23.507Z,23.92
2019-03-01T20:27:54.830Z,21.10
2019-03-01T20:30:30.237Z,21.17
2019-03-01T20:32:58.168Z,19.95
2019-03-01T20:35:27.471Z,20.92
2019-03-01T20:38:00.390Z,21.02
2019-03-01T20:40:29.840Z,20.72
2019-03-01T20:43:05.504Z,22.40
2019-03-01T20:45:31.446Z,20.60
2019-03-01T20:48:00.925Z,20.30
2019-03-01T20:51:17.048Z,22.00
2019-03-01T20:53:49.517Z,21.23
2019-03-01T20:56:25.267Z,20.82
2019-03-01T20:59:15.429Z,18.70
2019-03-01T21:01:47.513Z,20.97
2019-03-01T21:04:16.664Z,19.02
2019-03-01T21:06:46.264Z,21.70
2019-03-01T21:09:15.409Z,20.15
2019-03-01T21:11:44.667Z,17.92
2019-03-01T21:14:13.999Z,18.40
2019-03-01T21:16:44.749Z,21.73
2019-03-01T21:26:24.210Z,18.07
2019-03-01T21:29:19.986Z,17.75
2019-03-01T21:32:17.831Z,20.02
2019-03-01T21:35:10.525Z,22.65
2019-03-01T21:38:18.797Z,18.95
2019-03-01T21:44:35.781Z,19.77
2019-03-01T21:47:44.734Z,18.67
2019-03-01T21:50:23.768Z,18.60
2019-03-01T21:52:53.031Z,19.62
2019-03-01T21:55:25.014Z,18.87
2019-03-01T21:57:53.344Z,20.60
2019-03-01T22:00:25.332Z,17.23
2019-03-01T22:02:57.799Z,18.50
2019-03-01T22:08:58.604Z,18.10
2019-03-01T22:11:34.085Z,19.30
2019-03-01T22:14:16.534Z,19.57
2019-03-01T22:16:47.423Z,17.98
2019-03-01T22:19:17.512Z,20.85
2019-03-01T22:21:49.696Z,18.65
2019-03-01T22:24:18.986Z,19.12
2019-03-01T22:26:49.537Z,17.95
2019-03-01T22:29:21.187Z,18.65
2019-03-01T22:31:50.441Z,18.32
2019-03-01T22:34:19.689Z,18.98
2019-03-01T22:36:49.547Z,18.42
2019-03-01T22:39:19.859Z,17.45
2019-03-01T22:41:49.028Z,17.73
2019-03-01T22:44:18.467Z,18.32
2019-03-01T22:46:48.944Z,18.98
2019-03-01T22:49:18.168Z,18.15
2019-03-01T22:52:21.398Z,18.42
2019-03-01T22:54:51.006Z,20.55
2019-03-01T22:57:22.672Z,16.80
2019-03-01T23:01:25.210Z,17.27
2019-03-01T23:03:54.519Z,14.20
2019-03-01T23:06:22.287Z,14.83
2019-03-01T23:08:51.516Z,14.65
2019-03-01T23:11:20.685Z,13.88
2019-03-01T23:13:52.838Z,12.82
2019-03-01T23:16:20.688Z,11.88
2019-03-01T23:18:56.398Z,11.05
2019-03-01T23:21:20.857Z,12.37
2019-03-01T23:23:51.538Z,12.73
2019-03-01T23:26:21.603Z,10.13
2019-03-01T23:28:51.575Z,10.18
2019-03-01T23:31:20.687Z,12.15
2019-03-01T23:33:49.952Z,11.40
2019-03-01T23:36:20.277Z,11.95
2019-03-01T23:38:51.315Z,11.78
2019-03-01T23:41:20.556Z,10.53
2019-03-01T23:43:49.835Z,10.80
2019-03-01T23:46:20.299Z,11.10
2019-03-01T23:48:50.849Z,11.28
2019-03-01T23:51:20.076Z,11.18
2019-03-01T23:53:57.099Z,11.45
2019-03-01T23:56:26.760Z,10.75
2019-03-01T23:58:59.712Z,10.88
